Time;durP1;ratioP1;P1;durP2;ratioP2;P2;SDS_P1;SDS_P2;PMS_P1;PMS_P2;Temp;Humidity;BMP_temperature;BMP_pressure;BME280_temperature;BME280_humidity;BME280_pressure;Samples;Min_cycle;Max_cycle;Signal;HPM_P1;HPM_P2
2021/12/22 00:01:22;;;;;;;14.35;8.15;;;4.40;94.10;;;;;;4978600;28;20130;-66
2021/12/22 00:03:48;;;;;;;15.43;8.65;;;4.40;94.20;;;;;;4976413;28;20050;-66
2021/12/22 00:06:19;;;;;;;15.95;9.23;;;4.40;94.20;;;;;;4968920;28;20039;-66
2021/12/22 00:08:45;;;;;;;15.43;8.45;;;4.50;94.30;;;;;;4980146;28;20062;-66
2021/12/22 00:11:10;;;;;;;16.25;9.15;;;4.50;94.30;;;;;;4978919;28;20058;-66
2021/12/22 00:13:36;;;;;;;14.85;9.18;;;4.50;94.30;;;;;;4960773;28;22773;-66
2021/12/22 00:16:02;;;;;;;13.80;7.80;;;4.50;94.20;;;;;;4972741;28;20031;-66
2021/12/22 00:18:27;;;;;;;13.35;7.68;;;4.60;94.20;;;;;;4971529;28;20070;-66
2021/12/22 00:20:53;;;;;;;13.90;7.40;;;4.60;94.20;;;;;;4975808;28;20090;-66
2021/12/22 00:23:19;;;;;;;13.63;7.50;;;4.60;94.10;;;;;;4974278;28;20066;-66
2021/12/22 00:25:44;;;;;;;13.70;7.80;;;4.70;94.10;;;;;;4974940;28;20034;-66
2021/12/22 00:28:09;;;;;;;12.05;7.22;;;4.60;94.10;;;;;;4962032;28;20030;-65
2021/12/22 00:30:37;;;;;;;11.60;7.93;;;4.70;94.00;;;;;;4987921;28;20034;-66
2021/12/22 00:33:05;;;;;;;11.63;6.75;;;4.70;94.00;;;;;;4975067;28;20034;-66
2021/12/22 00:35:38;;;;;;;12.13;7.38;;;4.70;93.90;;;;;;4957360;28;20035;-66
2021/12/22 00:38:05;;;;;;;13.43;7.18;;;4.70;93.80;;;;;;4967142;28;20054;-67
2021/12/22 00:40:32;;;;;;;12.23;6.68;;;4.70;93.90;;;;;;4974236;28;20042;-66
2021/12/22 00:42:57;;;;;;;10.60;6.32;;;4.70;93.90;;;;;;4974971;28;20109;-66
2021/12/22 00:45:25;;;;;;;12.30;6.22;;;4.60;93.90;;;;;;4974473;28;20153;-65
2021/12/22 00:47:50;;;;;;;11.93;6.50;;;4.70;93.90;;;;;;4970465;28;20382;-66
2021/12/22 00:50:16;;;;;;;9.85;5.28;;;4.70;93.80;;;;;;4970549;28;20035;-65
2021/12/22 00:52:42;;;;;;;15.25;6.50;;;4.80;93.80;;;;;;4973300;28;20031;-65
2021/12/22 00:55:08;;;;;;;12.57;7.32;;;4.70;93.80;;;;;;4972830;28;20055;-65
2021/12/22 00:57:35;;;;;;;11.07;6.25;;;4.60;93.80;;;;;;4973942;28;20031;-65
2021/12/22 01:00:00;;;;;;;10.90;6.43;;;4.70;93.90;;;;;;4973779;28;20049;-64
2021/12/22 01:02:26;;;;;;;12.48;6.47;;;4.70;93.90;;;;;;4974632;28;20197;-65
2021/12/22 01:04:53;;;;;;;14.98;6.60;;;4.70;93.90;;;;;;4973759;28;20042;-65
2021/12/22 01:07:18;;;;;;;11.93;6.05;;;4.70;93.90;;;;;;4974627;28;20085;-65
2021/12/22 01:09:44;;;;;;;12.07;6.18;;;4.70;93.90;;;;;;4973068;28;20027;-65
2021/12/22 01:12:11;;;;;;;15.15;6.82;;;4.80;93.80;;;;;;4974398;28;20414;-66
2021/12/22 01:14:38;;;;;;;11.73;5.57;;;4.70;93.80;;;;;;4973543;28;20035;-66
2021/12/22 01:17:05;;;;;;;10.70;5.90;;;4.70;93.80;;;;;;4972600;28;20031;-66
2021/12/22 01:20:00;;;;;;;11.50;5.88;;;4.60;93.70;;;;;;4972243;28;20420;-66
2021/12/22 01:22:30;;;;;;;12.60;5.97;;;4.60;93.80;;;;;;4962032;28;20042;-65
2021/12/22 01:25:07;;;;;;;13.00;6.60;;;4.50;93.80;;;;;;4969693;28;20130;-65
2021/12/22 01:27:39;;;;;;;12.30;6.55;;;4.50;93.90;;;;;;4973958;28;20544;-66
2021/12/22 01:30:13;;;;;;;13.13;6.55;;;4.50;93.90;;;;;;4971325;28;20106;-65
2021/12/22 01:32:40;;;;;;;11.30;6.10;;;4.50;93.90;;;;;;4974191;28;20142;-65
2021/12/22 01:35:09;;;;;;;10.98;6.93;;;4.50;93.90;;;;;;4973972;28;20077;-64
2021/12/22 01:37:34;;;;;;;16.90;7.82;;;4.50;93.90;;;;;;4973289;28;20508;-64
2021/12/22 01:40:01;;;;;;;10.88;6.10;;;4.50;93.90;;;;;;4970393;28;20054;-64
2021/12/22 01:42:27;;;;;;;12.93;6.45;;;4.50;93.90;;;;;;4973353;28;20031;-64
2021/12/22 01:50:36;;;;;;;14.10;7.25;;;4.60;93.80;;;;;;4973034;28;20038;-64
2021/12/22 01:53:09;;;;;;;12.27;7.07;;;4.60;93.70;;;;;;4969301;28;20557;-64
2021/12/22 01:55:37;;;;;;;10.80;6.28;;;4.60;93.70;;;;;;4972108;28;20037;-64
2021/12/22 01:58:06;;;;;;;16.00;6.72;;;4.60;93.70;;;;;;4973811;28;20037;-64
2021/12/22 02:00:32;;;;;;;13.90;6.82;;;4.60;93.90;;;;;;4972580;28;20051;-63
2021/12/22 02:02:58;;;;;;;11.40;6.25;;;4.60;93.60;;;;;;4973300;28;20397;-65
2021/12/22 02:05:24;;;;;;;11.93;7.20;;;4.60;93.50;;;;;;4972667;28;20032;-65
2021/12/22 02:07:55;;;;;;;12.52;6.85;;;4.60;93.50;;;;;;4973323;28;20058;-65
2021/12/22 02:12:50;;;;;;;14.73;7.03;;;4.70;93.40;;;;;;4973324;28;20601;-65
2021/12/22 02:15:16;;;;;;;12.80;6.70;;;4.70;93.40;;;;;;4971079;28;20085;-65
2021/12/22 02:17:42;;;;;;;13.48;6.82;;;4.70;93.40;;;;;;4971981;28;20027;-65
2021/12/22 02:20:09;;;;;;;11.70;6.88;;;4.70;93.40;;;;;;4972435;28;20038;-65
2021/12/22 02:22:36;;;;;;;13.25;7.35;;;4.70;93.40;;;;;;4973188;28;20026;-65
2021/12/22 02:25:09;;;;;;;15.10;7.93;;;4.70;93.40;;;;;;4959455;28;20047;-65
2021/12/22 02:27:48;;;;;;;8.85;6.47;;;4.70;93.30;;;;;;4968510;28;20031;-65
2021/12/22 02:30:21;;;;;;;13.77;6.60;;;4.70;93.30;;;;;;4972488;28;20038;-65
2021/12/22 02:35:27;;;;;;;11.75;6.00;;;4.70;93.10;;;;;;4969272;28;20026;-65
2021/12/22 02:37:52;;;;;;;11.17;5.77;;;4.70;93.00;;;;;;4972854;28;20383;-65
2021/12/22 02:40:25;;;;;;;11.23;6.50;;;4.70;93.00;;;;;;4971855;28;20117;-64
2021/12/22 02:42:54;;;;;;;10.63;6.55;;;4.70;93.00;;;;;;4972823;28;20030;-64
2021/12/22 02:45:21;;;;;;;12.02;6.90;;;4.70;93.00;;;;;;4972461;28;20102;-64
2021/12/22 02:47:47;;;;;;;12.43;6.60;;;4.70;93.00;;;;;;4958219;28;20077;-64
2021/12/22 02:50:14;;;;;;;11.95;6.57;;;4.70;93.00;;;;;;4968257;28;20058;-64
2021/12/22 02:53:05;;;;;;;14.88;7.20;;;4.70;92.90;;;;;;4971701;28;20026;-64
2021/12/22 02:55:41;;;;;;;13.15;6.97;;;4.70;92.90;;;;;;4959813;28;20039;-64
2021/12/22 02:58:08;;;;;;;14.55;7.00;;;4.80;92.90;;;;;;4971622;28;20118;-64
2021/12/22 03:01:03;;;;;;;12.27;6.53;;;4.80;92.90;;;;;;4970502;28;20054;-64
2021/12/22 03:06:18;;;;;;;14.95;6.90;;;4.80;92.90;;;;;;4955210;28;20043;-64
2021/12/22 03:08:44;;;;;;;10.90;7.70;;;4.80;92.80;;;;;;4970319;28;20034;-64
2021/12/22 03:11:09;;;;;;;11.98;7.10;;;4.80;92.80;;;;;;4972545;28;20023;-64
2021/12/22 03:13:35;;;;;;;12.48;7.03;;;4.80;92.80;;;;;;4972380;28;20067;-64
2021/12/22 03:16:00;;;;;;;13.82;7.22;;;4.80;92.80;;;;;;4957159;28;20110;-64
2021/12/22 03:18:26;;;;;;;11.75;7.65;;;4.80;92.70;;;;;;4971574;28;20066;-64
2021/12/22 03:21:00;;;;;;;12.18;7.40;;;4.90;92.70;;;;;;4956803;28;20036;-64
2021/12/22 03:23:26;;;;;;;11.77;7.78;;;4.90;92.60;;;;;;4960770;28;20030;-64
2021/12/22 03:25:52;;;;;;;13.02;7.97;;;4.90;92.60;;;;;;4954679;28;20046;-64
2021/12/22 03:28:18;;;;;;;13.05;7.72;;;4.90;92.60;;;;;;4972668;28;20023;-64
2021/12/22 03:30:44;;;;;;;16.08;7.40;;;4.90;92.50;;;;;;4956380;28;20376;-64
2021/12/22 03:33:09;;;;;;;12.35;7.80;;;4.90;92.60;;;;;;4960323;28;20370;-64
2021/12/22 03:35:37;;;;;;;13.27;7.82;;;4.90;92.60;;;;;;4967587;28;20074;-64
2021/12/22 03:38:03;;;;;;;12.10;7.07;;;4.90;92.60;;;;;;4972377;28;20520;-64
2021/12/22 03:40:29;;;;;;;13.18;7.90;;;4.90;92.60;;;;;;4963748;28;20027;-64
2021/12/22 03:42:55;;;;;;;12.50;7.15;;;4.90;92.60;;;;;;4951913;29;20023;-64
2021/12/22 03:45:20;;;;;;;11.80;7.28;;;4.90;92.50;;;;;;4969146;28;20122;-64
2021/12/22 03:47:46;;;;;;;9.88;6.07;;;4.90;92.50;;;;;;4972418;28;20027;-64
2021/12/22 03:50:13;;;;;;;10.68;6.10;;;4.90;92.40;;;;;;4971037;28;20474;-64
2021/12/22 03:52:39;;;;;;;11.00;6.63;;;4.90;92.40;;;;;;4971925;28;20065;-64
2021/12/22 03:55:06;;;;;;;13.52;6.05;;;4.90;92.30;;;;;;4975331;28;20023;-63
2021/12/22 03:57:32;;;;;;;9.40;5.35;;;4.90;92.30;;;;;;4975829;28;20510;-64
2021/12/22 03:59:59;;;;;;;9.70;5.47;;;4.90;92.20;;;;;;4973928;28;20134;-63
2021/12/22 04:02:25;;;;;;;6.70;4.80;;;5.00;92.20;;;;;;4961359;28;20043;-63
2021/12/22 04:04:51;;;;;;;9.90;5.35;;;4.90;92.20;;;;;;4965376;28;20031;-63
2021/12/22 04:07:17;;;;;;;13.00;5.07;;;4.90;92.10;;;;;;4973501;28;20031;-64
2021/12/22 04:09:43;;;;;;;9.80;4.60;;;4.90;92.10;;;;;;4975032;28;20031;-64
2021/12/22 04:12:09;;;;;;;8.82;4.70;;;4.90;92.10;;;;;;4975142;28;20531;-64
2021/12/22 04:14:35;;;;;;;7.53;5.13;;;4.90;92.10;;;;;;4968119;28;20027;-63
2021/12/22 04:17:00;;;;;;;8.25;4.30;;;4.90;92.00;;;;;;4961620;28;20050;-63
2021/12/22 04:19:26;;;;;;;5.93;3.65;;;4.90;92.00;;;;;;4966418;28;20102;-63
2021/12/22 04:21:51;;;;;;;6.95;3.55;;;4.90;91.90;;;;;;4974259;28;20069;-63
2021/12/22 04:24:18;;;;;;;6.13;4.00;;;4.90;91.90;;;;;;4973715;28;20030;-63
2021/12/22 04:26:43;;;;;;;7.07;3.78;;;4.90;91.80;;;;;;4975390;28;20027;-63
2021/12/22 04:29:13;;;;;;;8.32;3.83;;;4.90;91.80;;;;;;4973308;28;20033;-65
2021/12/22 04:31:39;;;;;;;6.53;3.50;;;4.90;91.80;;;;;;4974442;28;20449;-63
2021/12/22 04:34:08;;;;;;;6.20;3.20;;;4.80;91.70;;;;;;4971637;28;20069;-63
2021/12/22 04:36:35;;;;;;;8.45;3.63;;;4.80;91.70;;;;;;4954244;29;20070;-64
2021/12/22 04:39:01;;;;;;;7.10;3.80;;;4.80;91.70;;;;;;4960102;28;20038;-64
2021/12/22 04:41:27;;;;;;;5.13;3.53;;;4.80;91.70;;;;;;4955770;28;20037;-64
2021/12/22 04:43:53;;;;;;;9.75;4.10;;;4.80;91.60;;;;;;4958492;28;20030;-64
2021/12/22 04:46:20;;;;;;;5.85;3.45;;;4.80;91.50;;;;;;4956018;28;20034;-65
2021/12/22 04:48:47;;;;;;;8.73;3.58;;;4.70;91.40;;;;;;4966968;28;20813;-65
2021/12/22 04:51:22;;;;;;;5.93;3.65;;;4.70;91.30;;;;;;4975084;28;20382;-64
2021/12/22 04:54:04;;;;;;;7.40;4.63;;;4.70;91.30;;;;;;4973146;28;20023;-64
2021/12/22 04:56:30;;;;;;;6.45;3.80;;;4.70;91.30;;;;;;4960172;28;20058;-64
2021/12/22 04:58:55;;;;;;;7.78;4.05;;;4.60;91.30;;;;;;4973801;28;20489;-64
2021/12/22 05:01:21;;;;;;;8.65;4.55;;;4.60;91.40;;;;;;4973566;28;20078;-64
2021/12/22 05:03:47;;;;;;;9.50;4.28;;;4.50;91.40;;;;;;4971663;28;20087;-64
2021/12/22 05:06:12;;;;;;;7.85;4.55;;;4.60;91.40;;;;;;4971655;28;20046;-64
2021/12/22 05:08:38;;;;;;;7.63;5.10;;;4.60;91.40;;;;;;4973568;28;20031;-64
2021/12/22 05:11:03;;;;;;;7.32;4.85;;;4.60;91.30;;;;;;4972940;28;20050;-64
2021/12/22 05:13:30;;;;;;;8.95;5.28;;;4.60;91.30;;;;;;4973828;28;20023;-64
2021/12/22 05:15:55;;;;;;;7.93;5.10;;;4.60;91.20;;;;;;4973612;28;20041;-64
2021/12/22 05:18:24;;;;;;;8.38;5.22;;;4.50;90.80;;;;;;4973626;28;20030;-63
2021/12/22 05:20:51;;;;;;;9.20;5.57;;;4.50;91.00;;;;;;4973716;28;20117;-64
2021/12/22 05:23:17;;;;;;;11.82;5.30;;;4.50;91.00;;;;;;4973334;28;20035;-64
2021/12/22 05:25:43;;;;;;;9.43;5.53;;;4.50;91.20;;;;;;4973444;28;20114;-64
2021/12/22 05:28:09;;;;;;;11.77;5.70;;;4.40;91.00;;;;;;4973593;28;20122;-64
2021/12/22 05:30:35;;;;;;;10.02;5.65;;;4.40;91.10;;;;;;4968821;28;20462;-64
2021/12/22 05:33:01;;;;;;;10.85;5.68;;;4.40;91.30;;;;;;4955731;28;20471;-64
2021/12/22 05:35:26;;;;;;;10.75;7.15;;;4.40;91.10;;;;;;4968294;28;20038;-64
2021/12/22 05:37:52;;;;;;;9.32;5.30;;;4.40;91.00;;;;;;4973846;28;20029;-64
2021/12/22 05:40:18;;;;;;;11.30;6.10;;;4.40;91.10;;;;;;4973247;28;20039;-64
2021/12/22 05:42:43;;;;;;;8.57;5.80;;;4.40;91.10;;;;;;4973952;28;20110;-64
2021/12/22 05:45:09;;;;;;;9.90;6.18;;;4.40;91.10;;;;;;4973452;28;20046;-64
2021/12/22 05:47:35;;;;;;;12.20;6.70;;;4.40;91.10;;;;;;4971763;28;20022;-64
2021/12/22 05:50:03;;;;;;;10.50;6.30;;;4.40;91.10;;;;;;4964832;28;20031;-64
2021/12/22 05:52:29;;;;;;;12.75;6.40;;;4.40;91.10;;;;;;4972113;28;20073;-64
2021/12/22 05:54:55;;;;;;;11.07;6.32;;;4.30;91.10;;;;;;4971588;28;20039;-65
2021/12/22 05:57:21;;;;;;;13.88;6.18;;;4.30;91.10;;;;;;4973483;28;20030;-64
2021/12/22 05:59:47;;;;;;;10.32;6.90;;;4.20;91.10;;;;;;4972740;28;20095;-64
2021/12/22 06:02:12;;;;;;;11.77;6.70;;;4.20;91.10;;;;;;4961181;28;20072;-64
2021/12/22 06:04:38;;;;;;;11.32;7.00;;;4.20;91.20;;;;;;4962253;28;20049;-64
2021/12/22 06:07:03;;;;;;;11.68;6.82;;;4.10;91.20;;;;;;4972876;28;20477;-64
2021/12/22 06:09:29;;;;;;;12.30;7.22;;;4.10;91.20;;;;;;4972353;28;20057;-64
2021/12/22 06:11:55;;;;;;;13.93;7.72;;;4.10;91.20;;;;;;4973531;28;20027;-64
2021/12/22 06:14:20;;;;;;;12.35;7.93;;;4.10;91.40;;;;;;4970464;28;20476;-64
2021/12/22 06:16:45;;;;;;;14.77;7.30;;;4.10;91.20;;;;;;4970819;28;20109;-64
2021/12/22 06:19:13;;;;;;;14.45;8.00;;;4.10;91.20;;;;;;4967128;28;20038;-63
2021/12/22 06:21:39;;;;;;;12.77;7.13;;;4.10;91.20;;;;;;4972932;28;20382;-63
2021/12/22 06:24:05;;;;;;;12.00;6.75;;;4.10;91.20;;;;;;4972255;28;20042;-63
2021/12/22 06:26:30;;;;;;;14.50;8.60;;;4.00;91.20;;;;;;4973091;28;20037;-64
2021/12/22 06:28:56;;;;;;;13.00;7.60;;;4.00;91.20;;;;;;4972291;28;20034;-63
2021/12/22 06:31:21;;;;;;;14.65;7.47;;;4.00;91.20;;;;;;4966562;28;20031;-63
2021/12/22 06:33:47;;;;;;;16.48;8.73;;;4.00;91.20;;;;;;4956271;28;20039;-64
2021/12/22 06:36:12;;;;;;;12.65;8.00;;;4.00;91.20;;;;;;4972561;28;20030;-64
2021/12/22 06:38:39;;;;;;;12.52;8.50;;;3.90;91.30;;;;;;4970546;28;20086;-64
2021/12/22 06:41:06;;;;;;;14.13;8.30;;;3.90;91.30;;;;;;4972502;28;20109;-64
2021/12/22 06:43:31;;;;;;;15.27;8.00;;;3.90;91.40;;;;;;4957206;28;20489;-64
2021/12/22 06:45:57;;;;;;;15.45;8.40;;;3.90;91.40;;;;;;4970209;28;20042;-62
2021/12/22 06:48:22;;;;;;;15.73;8.68;;;3.90;91.40;;;;;;4973083;28;20054;-62
2021/12/22 06:50:48;;;;;;;14.90;8.65;;;3.80;91.40;;;;;;4955570;28;20035;-63
2021/12/22 06:53:13;;;;;;;15.18;8.70;;;3.80;91.50;;;;;;4959364;28;20031;-63
2021/12/22 06:55:39;;;;;;;15.38;8.13;;;3.70;91.60;;;;;;4969770;28;20115;-63
2021/12/22 06:58:04;;;;;;;16.02;9.52;;;3.70;91.60;;;;;;4971876;28;20030;-64
2021/12/22 07:00:30;;;;;;;16.77;8.57;;;3.70;91.70;;;;;;4969999;28;20043;-64
2021/12/22 07:02:57;;;;;;;16.58;9.23;;;3.70;91.70;;;;;;4961667;28;20035;-65
2021/12/22 07:05:23;;;;;;;17.85;9.32;;;3.60;91.70;;;;;;4962937;28;20387;-64
2021/12/22 07:07:49;;;;;;;15.95;8.77;;;3.60;91.80;;;;;;4969165;28;20027;-65
2021/12/22 07:10:16;;;;;;;17.15;9.98;;;3.60;91.90;;;;;;4959939;28;20035;-65
2021/12/22 07:12:45;;;;;;;17.25;9.30;;;3.60;92.00;;;;;;4953076;28;20090;-65
2021/12/22 07:15:13;;;;;;;16.08;8.30;;;3.50;92.00;;;;;;4961731;28;20038;-64
2021/12/22 07:17:40;;;;;;;19.02;8.57;;;3.50;92.10;;;;;;4963135;28;20162;-64
2021/12/22 07:20:07;;;;;;;19.02;9.32;;;3.40;92.10;;;;;;4961675;28;20035;-65
2021/12/22 07:22:34;;;;;;;15.20;8.82;;;3.40;92.20;;;;;;4956371;28;20058;-65
2021/12/22 07:24:59;;;;;;;19.13;9.43;;;3.40;92.20;;;;;;4959607;28;20129;-65
2021/12/22 07:27:25;;;;;;;16.08;9.25;;;3.50;92.30;;;;;;4973082;28;20550;-65
2021/12/22 07:29:50;;;;;;;19.33;10.02;;;3.40;92.30;;;;;;4972705;28;20105;-65
2021/12/22 07:32:16;;;;;;;17.92;9.85;;;3.40;92.30;;;;;;4976400;28;20055;-65
2021/12/22 07:34:47;;;;;;;18.45;9.70;;;3.40;92.30;;;;;;4969671;28;20027;-64
2021/12/22 07:37:30;;;;;;;17.02;9.50;;;3.40;92.40;;;;;;4971881;28;20106;-65
2021/12/22 07:39:56;;;;;;;19.13;9.55;;;3.40;92.50;;;;;;4970653;28;20046;-66
2021/12/22 07:42:21;;;;;;;19.73;9.30;;;3.40;92.50;;;;;;4975464;28;20034;-63
2021/12/22 07:44:47;;;;;;;25.00;9.40;;;3.30;92.50;;;;;;4971357;28;20398;-63
2021/12/22 07:47:12;;;;;;;21.02;9.55;;;3.40;92.60;;;;;;4967873;28;20037;-63
2021/12/22 07:49:38;;;;;;;19.65;9.13;;;3.30;92.60;;;;;;4974671;28;20586;-64
2021/12/22 07:52:04;;;;;;;19.48;9.00;;;3.30;92.70;;;;;;4964899;28;20035;-64
2021/12/22 07:54:29;;;;;;;16.65;9.60;;;3.40;92.70;;;;;;4968941;28;20034;-63
2021/12/22 07:56:55;;;;;;;15.38;9.32;;;3.40;92.70;;;;;;4967591;28;20033;-64
2021/12/22 07:59:20;;;;;;;17.10;9.27;;;3.40;92.70;;;;;;4972648;28;20023;-64
2021/12/22 08:01:46;;;;;;;21.52;9.90;;;3.40;92.70;;;;;;4974240;28;20043;-64
2021/12/22 08:04:11;;;;;;;17.63;9.15;;;3.40;92.70;;;;;;4973436;28;20130;-65
2021/12/22 08:06:37;;;;;;;17.63;9.85;;;3.40;92.70;;;;;;4973975;28;20186;-64
2021/12/22 08:09:03;;;;;;;16.20;9.40;;;3.40;92.80;;;;;;4972017;28;20038;-64
2021/12/22 08:11:29;;;;;;;17.92;9.65;;;3.40;92.80;;;;;;4971712;28;20085;-64
2021/12/22 08:13:55;;;;;;;20.15;9.82;;;3.40;92.80;;;;;;4972185;28;20740;-64
2021/12/22 08:16:20;;;;;;;16.10;9.45;;;3.40;92.90;;;;;;4967968;28;20070;-64
2021/12/22 08:18:46;;;;;;;17.15;10.13;;;3.50;92.90;;;;;;4969020;28;20063;-63
2021/12/22 08:21:11;;;;;;;19.90;9.07;;;3.50;93.00;;;;;;4974497;28;20061;-63
2021/12/22 08:23:37;;;;;;;23.20;9.85;;;3.60;93.00;;;;;;4969805;28;20514;-64
2021/12/22 08:26:03;;;;;;;23.73;11.25;;;3.70;93.00;;;;;;4967819;28;20046;-64
2021/12/22 08:28:28;;;;;;;21.80;10.60;;;3.70;92.90;;;;;;4964217;28;20115;-64
2021/12/22 08:30:54;;;;;;;20.50;10.93;;;3.80;92.90;;;;;;4968266;28;20047;-64
2021/12/22 08:33:21;;;;;;;21.52;10.90;;;3.80;92.90;;;;;;4963043;28;20039;-64
2021/12/22 08:38:50;;;;;;;23.10;10.45;;;4.00;92.70;;;;;;4964179;28;20095;-64
2021/12/22 08:41:17;;;;;;;18.95;9.85;;;4.00;92.70;;;;;;4971446;28;20359;-63
2021/12/22 08:43:42;;;;;;;19.50;10.30;;;4.00;92.60;;;;;;4971029;28;20039;-64
2021/12/22 08:46:08;;;;;;;20.35;9.43;;;4.00;92.60;;;;;;4972308;28;20038;-62
2021/12/22 08:48:34;;;;;;;16.60;9.50;;;4.00;92.60;;;;;;4966257;28;20035;-63
2021/12/22 08:50:59;;;;;;;19.90;10.73;;;4.00;92.60;;;;;;4970093;28;20035;-64
2021/12/22 08:53:25;;;;;;;20.40;10.20;;;4.00;92.50;;;;;;4969987;28;22339;-64
2021/12/22 08:55:50;;;;;;;19.08;9.52;;;4.10;92.40;;;;;;4971662;28;20046;-64
2021/12/22 08:58:16;;;;;;;19.08;9.23;;;4.10;92.40;;;;;;4963463;28;20035;-64
2021/12/22 09:00:42;;;;;;;19.00;10.02;;;4.10;92.30;;;;;;4968420;28;20429;-64
2021/12/22 09:03:07;;;;;;;20.95;9.40;;;4.20;92.40;;;;;;4967447;28;20490;-66
2021/12/22 09:05:33;;;;;;;18.65;9.27;;;4.20;92.40;;;;;;4962101;28;20074;-65
2021/12/22 09:07:58;;;;;;;21.05;9.38;;;4.20;92.30;;;;;;4972166;28;20034;-64
2021/12/22 09:10:24;;;;;;;14.90;9.07;;;4.30;92.30;;;;;;4970365;28;20089;-64
2021/12/22 09:12:49;;;;;;;16.02;9.20;;;4.30;92.20;;;;;;4964186;28;20374;-64
2021/12/22 09:15:17;;;;;;;16.67;8.40;;;4.30;92.10;;;;;;4966147;28;20453;-65
2021/12/22 09:17:43;;;;;;;15.60;8.82;;;4.40;92.10;;;;;;4972162;28;20453;-65
2021/12/22 09:20:08;;;;;;;16.38;8.38;;;4.40;92.00;;;;;;4970900;28;20031;-65
2021/12/22 09:22:34;;;;;;;20.10;9.43;;;4.40;92.00;;;;;;4966913;28;20113;-64
2021/12/22 09:24:59;;;;;;;17.50;8.63;;;4.40;92.00;;;;;;4960954;28;20032;-65
2021/12/22 09:27:25;;;;;;;20.80;9.15;;;4.50;92.00;;;;;;4972206;28;20484;-65
2021/12/22 09:29:50;;;;;;;15.30;9.32;;;4.50;91.90;;;;;;4959126;28;20031;-65
2021/12/22 09:32:17;;;;;;;18.98;10.20;;;4.50;91.90;;;;;;4964315;28;20022;-65
2021/12/22 09:34:45;;;;;;;17.13;8.73;;;4.50;91.90;;;;;;4966883;28;20041;-65
2021/12/22 09:37:11;;;;;;;20.63;10.38;;;4.50;91.90;;;;;;4962800;28;20089;-65
2021/12/22 09:39:37;;;;;;;18.63;10.70;;;4.60;91.80;;;;;;4959558;28;20114;-65
2021/12/22 09:42:03;;;;;;;21.00;10.85;;;4.60;91.80;;;;;;4957947;28;20066;-66
2021/12/22 09:44:32;;;;;;;21.52;10.50;;;4.60;91.80;;;;;;4962107;28;20035;-65
2021/12/22 09:46:58;;;;;;;20.60;11.68;;;4.60;91.80;;;;;;4968671;28;20059;-65
2021/12/22 09:49:37;;;;;;;26.40;12.45;;;4.60;91.70;;;;;;4969871;28;20074;-65
2021/12/22 09:52:17;;;;;;;23.17;13.20;;;4.60;91.70;;;;;;4966638;28;20043;-65
2021/12/22 09:54:43;;;;;;;21.80;12.07;;;4.70;91.80;;;;;;4963151;28;20453;-65
2021/12/22 09:57:10;;;;;;;20.95;12.98;;;4.70;91.80;;;;;;4972983;28;20042;-65
2021/12/22 09:59:36;;;;;;;20.90;12.45;;;4.80;91.70;;;;;;4969895;28;20085;-65
2021/12/22 10:02:02;;;;;;;24.30;13.88;;;4.80;91.70;;;;;;4969400;28;20055;-65
2021/12/22 10:04:28;;;;;;;24.98;13.73;;;4.80;91.70;;;;;;4970056;28;20096;-65
2021/12/22 10:06:53;;;;;;;26.00;13.82;;;4.80;91.70;;;;;;4971050;28;20026;-65
2021/12/22 10:09:23;;;;;;;27.52;14.18;;;4.80;91.70;;;;;;4970995;28;20034;-65
2021/12/22 10:11:50;;;;;;;21.52;12.60;;;4.90;91.70;;;;;;4972203;28;20053;-65
2021/12/22 10:14:18;;;;;;;21.73;13.10;;;4.90;91.70;;;;;;4972631;28;20058;-64
2021/12/22 10:16:49;;;;;;;25.42;13.52;;;4.90;91.70;;;;;;4972375;28;20102;-65
2021/12/22 10:19:15;;;;;;;21.88;13.23;;;4.90;91.70;;;;;;4966670;28;20126;-65
2021/12/22 10:22:01;;;;;;;26.45;14.23;;;5.00;91.50;;;;;;4959270;28;20533;-65
2021/12/22 10:24:35;;;;;;;31.73;15.93;;;4.90;91.50;;;;;;4966807;28;20071;-65
2021/12/22 10:27:03;;;;;;;29.63;13.98;;;4.90;91.50;;;;;;4967219;28;20053;-64
2021/12/22 10:29:33;;;;;;;24.33;14.35;;;4.90;91.50;;;;;;4969684;28;20038;-65
2021/12/22 10:32:10;;;;;;;29.48;14.60;;;5.00;91.40;;;;;;4971821;28;20031;-64
2021/12/22 10:35:01;;;;;;;28.25;14.45;;;5.00;91.30;;;;;;4964689;28;20105;-64
2021/12/22 10:37:39;;;;;;;28.38;15.23;;;5.00;91.20;;;;;;4968460;28;20061;-67
2021/12/22 10:40:23;;;;;;;27.02;15.40;;;5.00;91.10;;;;;;4962916;28;20030;-67
2021/12/22 10:42:49;;;;;;;25.35;15.10;;;5.00;91.10;;;;;;4975265;28;20394;-66
2021/12/22 10:45:16;;;;;;;26.67;15.45;;;5.00;91.10;;;;;;4970671;28;20057;-64
2021/12/22 10:50:36;;;;;;;25.88;15.23;;;5.00;91.00;;;;;;4957702;28;20537;-67
2021/12/22 10:53:03;;;;;;;22.73;14.98;;;5.00;91.00;;;;;;4954369;28;20383;-65
2021/12/22 10:55:43;;;;;;;24.42;13.82;;;5.00;91.00;;;;;;4966954;28;20451;-66
2021/12/22 10:58:21;;;;;;;20.55;12.73;;;5.10;90.90;;;;;;4972939;28;20385;-66
2021/12/22 11:01:01;;;;;;;22.27;13.23;;;5.10;90.80;;;;;;4969874;28;20185;-65
2021/12/22 11:03:39;;;;;;;23.02;12.70;;;5.10;90.70;;;;;;4973025;28;20490;-65
2021/12/22 11:06:23;;;;;;;23.73;13.10;;;5.10;90.70;;;;;;4969224;28;20038;-66
2021/12/22 11:09:16;;;;;;;24.05;13.18;;;5.10;90.70;;;;;;4968161;28;20035;-66
2021/12/22 11:12:02;;;;;;;23.45;13.85;;;5.10;90.70;;;;;;4967761;28;20394;-67
2021/12/22 11:14:33;;;;;;;24.80;14.43;;;5.10;90.70;;;;;;4965441;28;20437;-67
2021/12/22 11:17:11;;;;;;;29.77;15.52;;;5.20;90.70;;;;;;4967480;28;20497;-67
2021/12/22 11:19:47;;;;;;;25.75;14.30;;;5.20;90.70;;;;;;4966704;28;20512;-67
2021/12/22 11:22:16;;;;;;;25.58;15.32;;;5.10;90.70;;;;;;4964795;28;20039;-67
2021/12/22 11:24:51;;;;;;;26.60;14.32;;;5.20;90.70;;;;;;4970793;28;20525;-67
2021/12/22 11:27:22;;;;;;;25.52;13.65;;;5.20;90.60;;;;;;4971494;28;20109;-67
2021/12/22 11:29:54;;;;;;;21.70;12.68;;;5.20;90.60;;;;;;4971129;28;20544;-67
2021/12/22 11:32:27;;;;;;;21.90;13.10;;;5.20;90.60;;;;;;4971887;28;20082;-66
2021/12/22 11:34:56;;;;;;;22.02;13.18;;;5.10;90.60;;;;;;4969113;28;20560;-66
2021/12/22 11:37:23;;;;;;;23.25;12.98;;;5.10;90.60;;;;;;4971228;28;20035;-65
2021/12/22 11:39:50;;;;;;;21.83;11.90;;;5.20;90.60;;;;;;4971120;28;20078;-66
2021/12/22 11:42:16;;;;;;;20.40;12.38;;;5.20;90.60;;;;;;4986181;28;20034;-66
2021/12/22 11:44:48;;;;;;;22.33;12.93;;;5.20;90.60;;;;;;4980495;28;20039;-66
2021/12/22 11:47:18;;;;;;;22.90;12.50;;;5.20;90.50;;;;;;4970414;28;20058;-66
2021/12/22 11:49:53;;;;;;;28.70;13.55;;;5.10;90.50;;;;;;4967930;28;20027;-66
2021/12/22 11:52:33;;;;;;;23.85;12.77;;;5.20;90.60;;;;;;4957396;28;20080;-66
2021/12/22 11:55:13;;;;;;;21.58;12.60;;;5.20;90.50;;;;;;4963230;28;20038;-66
2021/12/22 11:57:39;;;;;;;22.45;13.18;;;5.20;90.50;;;;;;4970935;28;20042;-66
2021/12/22 12:00:28;;;;;;;21.45;12.52;;;5.20;90.50;;;;;;4970504;28;20043;-67
2021/12/22 12:02:55;;;;;;;20.25;12.32;;;5.20;90.50;;;;;;4968569;28;20089;-66
2021/12/22 12:05:29;;;;;;;20.17;12.38;;;5.30;90.50;;;;;;4969883;28;20046;-66
2021/12/22 12:08:16;;;;;;;24.33;12.80;;;5.30;90.40;;;;;;4983676;28;20166;-67
2021/12/22 12:10:48;;;;;;;22.20;13.13;;;5.30;90.50;;;;;;4968626;28;20035;-66
2021/12/22 12:13:37;;;;;;;22.15;11.32;;;5.30;90.50;;;;;;4953148;28;20106;-65
2021/12/22 12:21:54;;;;;;;21.30;12.75;;;5.50;90.20;;;;;;4969741;28;20027;-68
2021/12/22 12:24:35;;;;;;;23.50;13.75;;;5.50;90.20;;;;;;4969618;28;20090;-63
2021/12/22 12:27:22;;;;;;;28.65;15.40;;;5.60;90.20;;;;;;4963505;28;20031;-66
2021/12/22 12:29:57;;;;;;;25.75;15.10;;;5.60;90.20;;;;;;4963349;28;20486;-65
2021/12/22 12:32:41;;;;;;;23.02;13.95;;;5.40;90.20;;;;;;4959668;28;20050;-65
2021/12/22 12:35:19;;;;;;;26.93;14.00;;;5.40;90.30;;;;;;4973020;28;20034;-66
2021/12/22 12:38:16;;;;;;;29.00;13.95;;;5.30;90.30;;;;;;4957226;28;20032;-66
2021/12/22 12:40:55;;;;;;;24.30;13.45;;;5.30;90.40;;;;;;4970305;28;20027;-66
2021/12/22 12:46:24;;;;;;;26.73;15.32;;;5.20;90.40;;;;;;4970189;28;20039;-66
2021/12/22 12:49:04;;;;;;;24.25;13.80;;;5.20;90.50;;;;;;4959221;28;20030;-66
2021/12/22 12:51:42;;;;;;;21.42;12.48;;;5.20;90.50;;;;;;4964437;28;20121;-66
2021/12/22 12:54:09;;;;;;;24.13;13.95;;;5.30;90.40;;;;;;4971967;28;20037;-66
2021/12/22 12:56:38;;;;;;;25.70;13.95;;;5.20;90.40;;;;;;4971103;28;20382;-66
2021/12/22 12:59:06;;;;;;;21.33;12.32;;;5.20;90.40;;;;;;4970338;28;20046;-66
2021/12/22 13:01:47;;;;;;;19.67;12.25;;;5.20;90.40;;;;;;4973111;28;20066;-67
2021/12/22 13:04:23;;;;;;;18.10;11.25;;;5.20;90.40;;;;;;4971143;28;20030;-67
2021/12/22 13:06:51;;;;;;;24.30;12.70;;;5.20;90.40;;;;;;4954851;28;20356;-67
2021/12/22 13:09:24;;;;;;;19.30;11.82;;;5.20;90.50;;;;;;4971566;28;20069;-67
2021/12/22 13:12:01;;;;;;;20.92;12.57;;;5.20;90.40;;;;;;4964844;28;20027;-67
2021/12/22 13:17:13;;;;;;;20.27;11.38;;;5.20;90.40;;;;;;4962731;28;20529;-67
2021/12/22 13:19:49;;;;;;;18.88;11.32;;;5.20;90.30;;;;;;4966792;28;20031;-67
2021/12/22 13:22:16;;;;;;;21.48;12.30;;;5.20;90.30;;;;;;4969848;28;20487;-67
2021/12/22 13:24:42;;;;;;;18.05;11.20;;;5.10;90.30;;;;;;4967241;28;20039;-67